KSYI/SYI METAR and TAF weather

Enter ICAO airport designator
Station Type Date Time Source
KSYI METAR 2022/06/28 08:55 UTC NOAA

KSYI 280855Z AUTO 35005KT 10SM CLR 16/13 A3015 RMK A01


Station Type Date Time Source
KSYI Decoded METAR 2022/06/28 08:55 UTC NOAA

Station name not available
Jun 28, 2022 - 04:55 AM EDT / 2022.06.28 0855 UTC
Wind: from the N (350 degrees) at 6 MPH (5 KT):0
Visibility: 10 mile(s):0
Sky conditions: clear
Temperature: 60 F (16 C)
Dew Point: 55 F (13 C)
Relative Humidity: 82%
Pressure (altimeter): 30.15 in. Hg (1020 hPa)
ob: KSYI 280855Z AUTO 35005KT 10SM CLR 16/13 A3015 RMK A01
cycle: 9

Station Type Date Time Source
KSYI TAF UTC NOAA

Error!

Example: see airport list